createdAt,value
2023-02-19T00:10:45.707Z,101018.81
2023-02-19T00:25:37.637Z,101015.61
2023-02-19T00:40:29.664Z,100986.70
2023-02-19T00:55:23.444Z,100978.97
2023-02-19T01:10:17.498Z,100998.38
2023-02-19T01:25:10.475Z,100986.98
2023-02-19T01:40:02.439Z,101017.88
2023-02-19T01:54:54.298Z,101001.08
2023-02-19T02:10:05.162Z,100954.84
2023-02-19T02:25:17.363Z,100980.42
2023-02-19T02:40:13.132Z,100968.70
2023-02-19T02:55:06.074Z,100955.62
2023-02-19T03:25:24.219Z,100938.02
2023-02-19T03:40:22.208Z,100971.59
2023-02-19T03:55:18.236Z,100986.67
2023-02-19T04:10:13.777Z,100995.94
2023-02-19T04:25:06.607Z,101005.49
2023-02-19T04:40:00.577Z,101025.47
2023-02-19T04:54:59.366Z,101031.33
2023-02-19T05:09:45.507Z,101021.73
2023-02-19T05:24:38.282Z,101017.63
2023-02-19T05:39:28.254Z,101013.80
2023-02-19T05:54:18.999Z,101029.20
2023-02-19T06:09:11.921Z,101041.74
2023-02-19T06:24:08.893Z,101049.48
2023-02-19T06:39:04.057Z,101062.44
2023-02-19T06:53:56.871Z,101089.80
2023-02-19T07:08:50.971Z,101121.34
2023-02-19T07:23:43.842Z,101139.94
2023-02-19T07:38:36.799Z,101151.97
2023-02-19T07:53:29.662Z,101164.69
2023-02-19T08:08:22.723Z,101188.28
2023-02-19T08:25:41.082Z,101185.70
2023-02-19T08:28:07.385Z,101181.67
2023-02-19T08:42:30.701Z,101200.91
2023-02-19T08:57:24.051Z,101200.53
2023-02-19T09:12:18.084Z,101227.52
2023-02-19T09:27:10.997Z,101245.50
2023-02-19T09:42:03.989Z,101268.38
2023-02-19T09:56:59.016Z,101290.05
2023-02-19T10:11:58.057Z,101278.23
2023-02-19T10:26:55.049Z,101294.13
2023-02-19T10:57:20.029Z,101298.28
2023-02-19T11:12:17.951Z,101304.34
2023-02-19T11:27:11.167Z,101286.84
2023-02-19T11:42:23.419Z,101297.14
2023-02-19T11:57:41.778Z,101321.31
2023-02-19T12:12:56.324Z,101305.88
2023-02-19T12:28:03.637Z,101301.86
2023-02-19T12:58:07.949Z,101305.70
2023-02-19T13:13:02.989Z,101287.24
2023-02-19T13:27:57.848Z,101292.70
2023-02-19T13:42:53.357Z,101290.34
2023-02-19T13:57:47.343Z,101279.62
2023-02-19T14:12:38.258Z,101278.48
2023-02-19T14:27:30.707Z,101276.38
2023-02-19T14:42:24.712Z,101297.11
2023-02-19T14:57:19.598Z,101319.66
2023-02-19T15:12:14.376Z,101326.39
2023-02-19T15:27:06.403Z,101350.09
2023-02-19T15:42:00.592Z,101333.88
2023-02-19T15:56:53.404Z,101363.77
2023-02-19T16:11:53.369Z,101363.88
2023-02-19T16:26:49.357Z,101370.83
2023-02-19T16:41:48.408Z,101348.52
2023-02-19T16:56:44.564Z,101351.50
2023-02-19T17:11:37.925Z,101365.43
2023-02-19T17:26:31.349Z,101369.95
2023-02-19T17:41:23.803Z,101396.66
2023-02-19T17:56:16.793Z,101422.27
2023-02-19T18:11:09.940Z,101449.00
2023-02-19T18:26:03.181Z,101467.09
2023-02-19T18:40:54.550Z,101477.67
2023-02-19T18:55:46.564Z,101505.28
2023-02-19T19:10:38.326Z,101523.50
2023-02-19T19:25:30.368Z,101533.24
2023-02-19T19:40:22.320Z,101528.15
2023-02-19T19:55:15.301Z,101536.23
2023-02-19T20:10:09.782Z,101534.15
2023-02-19T20:25:03.702Z,101539.95
2023-02-19T20:39:57.514Z,101541.92
2023-02-19T20:54:51.025Z,101551.73
2023-02-19T21:09:43.995Z,101555.47
2023-02-19T21:24:35.981Z,101554.73
2023-02-19T21:39:29.932Z,101532.27
2023-02-19T21:54:21.997Z,101537.17
2023-02-19T22:24:06.842Z,101567.75
2023-02-19T22:38:59.639Z,101569.15
2023-02-19T22:53:53.602Z,101577.70
2023-02-19T23:08:46.502Z,101576.25
2023-02-19T23:23:38.556Z,101593.86
2023-02-19T23:38:31.421Z,101603.36
2023-02-19T23:53:23.352Z,101607.17
